createdAt,value
2024-03-09T00:02:33.973Z,1.48
2024-03-09T00:05:14.951Z,1.47
2024-03-09T00:08:09.473Z,1.47
2024-03-09T00:11:18.803Z,1.49
2024-03-09T00:14:28.127Z,1.46
2024-03-09T00:18:00.433Z,1.45
2024-03-09T00:20:53.661Z,1.47
2024-03-09T00:24:00.382Z,1.48
2024-03-09T00:27:26.105Z,1.50
2024-03-09T00:30:29.289Z,1.45
2024-03-09T00:33:47.462Z,1.45
2024-03-09T00:36:39.769Z,1.46
2024-03-09T00:40:19.011Z,1.46
2024-03-09T00:43:10.921Z,1.45
2024-03-09T00:46:29.911Z,1.43
2024-03-09T00:49:52.185Z,1.44
2024-03-09T00:52:27.167Z,1.49
2024-03-09T00:55:20.505Z,1.55
2024-03-09T00:58:02.509Z,1.59
2024-03-09T01:00:47.812Z,1.62
2024-03-09T01:03:36.714Z,1.64
2024-03-09T01:06:09.053Z,1.66
2024-03-09T01:09:09.413Z,1.65
2024-03-09T01:12:08.559Z,1.69
2024-03-09T01:14:37.457Z,1.76
2024-03-09T01:17:51.802Z,1.78
2024-03-09T01:20:43.364Z,1.81
2024-03-09T01:24:12.319Z,1.83
2024-03-09T01:26:42.214Z,1.86
2024-03-09T01:29:26.592Z,1.90
2024-03-09T01:32:07.215Z,1.90
2024-03-09T01:34:39.243Z,1.89
2024-03-09T01:38:07.273Z,1.91
2024-03-09T01:40:56.080Z,1.91
2024-03-09T01:43:58.285Z,1.95
2024-03-09T01:47:30.637Z,1.99
2024-03-09T01:50:16.915Z,1.95
2024-03-09T01:53:09.417Z,1.95
2024-03-09T01:55:51.082Z,1.98
2024-03-09T01:58:55.299Z,2.00
2024-03-09T02:02:09.873Z,1.99
2024-03-09T02:05:19.493Z,1.99
2024-03-09T02:08:08.670Z,2.00
2024-03-09T02:11:07.181Z,1.98
2024-03-09T02:14:25.712Z,1.96
2024-03-09T02:17:19.106Z,1.99
2024-03-09T02:20:02.120Z,2.00
2024-03-09T02:22:36.604Z,1.98
2024-03-09T02:25:41.560Z,1.94
2024-03-09T02:28:24.831Z,1.93
2024-03-09T02:31:04.203Z,1.93
2024-03-09T02:33:36.217Z,1.94
2024-03-09T02:36:49.549Z,1.94
2024-03-09T02:40:34.493Z,1.97
2024-03-09T02:43:09.832Z,2.00
2024-03-09T02:45:51.160Z,2.02
2024-03-09T02:49:02.398Z,2.04
2024-03-09T02:52:10.591Z,2.02
2024-03-09T02:55:06.177Z,2.02
2024-03-09T02:57:35.127Z,2.07
2024-03-09T03:01:24.252Z,2.11
2024-03-09T03:05:13.500Z,2.06
2024-03-09T03:08:16.219Z,2.01
2024-03-09T03:12:05.464Z,1.99
2024-03-09T03:15:05.537Z,2.00
2024-03-09T03:17:59.614Z,2.04
2024-03-09T03:21:37.721Z,2.07
2024-03-09T03:24:27.060Z,2.06
2024-03-09T03:27:59.169Z,2.06
2024-03-09T03:31:10.228Z,2.05
2024-03-09T03:34:22.684Z,2.05
2024-03-09T03:37:42.997Z,2.04
2024-03-09T03:40:34.843Z,2.03
2024-03-09T03:44:15.640Z,2.05
2024-03-09T03:47:00.701Z,2.05
2024-03-09T03:50:12.088Z,2.06
2024-03-09T03:53:13.392Z,2.09
2024-03-09T03:56:40.856Z,2.10
2024-03-09T03:59:30.862Z,2.08
2024-03-09T04:02:34.459Z,2.04
2024-03-09T04:05:34.646Z,2.02
2024-03-09T04:08:31.956Z,2.01
2024-03-09T04:12:11.806Z,1.97
2024-03-09T04:15:01.590Z,1.93
2024-03-09T04:18:13.583Z,1.94
2024-03-09T04:20:57.349Z,1.93
2024-03-09T04:24:25.302Z,1.89
2024-03-09T04:28:14.500Z,1.86
2024-03-09T04:31:45.564Z,1.84
2024-03-09T04:34:27.425Z,1.91
2024-03-09T04:38:01.974Z,1.93
2024-03-09T04:41:32.739Z,1.93
2024-03-09T04:44:47.190Z,1.96
2024-03-09T04:47:46.657Z,1.95
2024-03-09T04:50:53.980Z,1.88
2024-03-09T04:54:21.327Z,1.85
2024-03-09T04:57:40.071Z,1.85
2024-03-09T05:01:00.109Z,1.86
2024-03-09T05:04:38.593Z,1.85
2024-03-09T05:07:43.071Z,1.85
2024-03-09T05:10:55.126Z,1.89
2024-03-09T05:13:50.910Z,1.92
2024-03-09T05:17:09.498Z,1.95
2024-03-09T05:20:21.580Z,1.88
2024-03-09T05:24:00.817Z,1.80
2024-03-09T05:27:22.275Z,1.77
2024-03-09T05:30:51.365Z,1.76
2024-03-09T05:33:43.372Z,1.81
2024-03-09T05:36:56.537Z,1.85
2024-03-09T05:40:06.467Z,1.86
2024-03-09T05:43:09.809Z,1.90
2024-03-09T05:46:33.729Z,1.94
2024-03-09T05:50:12.630Z,2.00
2024-03-09T05:53:27.677Z,2.05
2024-03-09T05:56:56.943Z,2.11
2024-03-09T05:59:48.900Z,2.18
2024-03-09T06:02:46.371Z,2.23
2024-03-09T06:05:39.059Z,2.26
2024-03-09T06:08:31.100Z,2.29
2024-03-09T06:11:36.419Z,2.33
2024-03-09T06:15:18.785Z,2.39
2024-03-09T06:18:26.419Z,2.46
2024-03-09T06:21:23.405Z,2.54
2024-03-09T06:24:01.879Z,2.63
2024-03-09T06:26:35.338Z,2.73
2024-03-09T06:29:11.654Z,2.83
2024-03-09T06:31:44.647Z,2.90
2024-03-09T06:34:16.793Z,3.00
2024-03-09T06:36:56.686Z,3.09
2024-03-09T06:40:06.197Z,3.17
2024-03-09T06:42:59.461Z,3.27
2024-03-09T06:45:31.032Z,3.39
2024-03-09T06:48:24.911Z,3.50
2024-03-09T06:51:00.272Z,3.60
2024-03-09T06:53:43.253Z,3.71
2024-03-09T06:56:16.368Z,3.82
2024-03-09T06:59:08.354Z,3.94
2024-03-09T07:01:40.209Z,4.01
2024-03-09T07:04:22.585Z,4.12
2024-03-09T07:07:04.750Z,4.23
2024-03-09T07:09:53.446Z,4.34
2024-03-09T07:12:44.864Z,4.45
2024-03-09T07:15:34.147Z,4.57
2024-03-09T07:18:25.774Z,4.73
2024-03-09T07:21:24.697Z,4.85
2024-03-09T07:24:07.673Z,4.92
2024-03-09T07:26:58.934Z,4.99
2024-03-09T07:29:36.588Z,5.11
2024-03-09T07:32:10.644Z,5.21
2024-03-09T07:35:15.738Z,5.27
2024-03-09T07:38:01.073Z,5.32
2024-03-09T07:41:10.845Z,5.43
2024-03-09T07:43:51.576Z,5.49
2024-03-09T07:46:23.630Z,5.60
2024-03-09T07:48:52.540Z,5.71
2024-03-09T07:51:21.393Z,5.85
2024-03-09T07:54:22.183Z,5.98
2024-03-09T07:57:12.781Z,6.14
2024-03-09T07:59:41.852Z,6.25
2024-03-09T08:02:15.210Z,6.36
2024-03-09T08:04:55.687Z,6.44
2024-03-09T08:07:27.336Z,6.54
2024-03-09T08:09:56.055Z,6.63
2024-03-09T08:12:50.655Z,6.67
2024-03-09T08:15:25.145Z,6.74
2024-03-09T08:18:02.916Z,6.88
2024-03-09T08:20:51.586Z,7.05
2024-03-09T08:23:24.874Z,7.22
2024-03-09T08:25:54.254Z,7.36
2024-03-09T08:28:25.745Z,7.43
2024-03-09T08:31:14.908Z,7.36
2024-03-09T08:33:44.673Z,7.30
2024-03-09T08:36:38.521Z,7.41
2024-03-09T08:39:27.343Z,7.45
2024-03-09T08:42:29.501Z,7.27
2024-03-09T08:45:42.159Z,7.43
2024-03-09T08:48:13.551Z,7.64
2024-03-09T08:50:45.169Z,7.77
2024-03-09T08:53:18.534Z,7.79
2024-03-09T08:55:57.455Z,8.00
2024-03-09T08:58:26.019Z,8.23
2024-03-09T09:00:54.905Z,8.45
2024-03-09T09:03:24.756Z,8.66
2024-03-09T09:05:56.731Z,8.91
2024-03-09T09:08:27.864Z,9.19
2024-03-09T09:10:57.048Z,9.36
2024-03-09T09:13:28.733Z,9.45
2024-03-09T09:15:57.304Z,9.37
2024-03-09T09:18:28.388Z,9.23
2024-03-09T09:20:56.915Z,9.10
2024-03-09T09:23:25.561Z,8.96
2024-03-09T09:26:02.502Z,8.81
2024-03-09T09:28:31.242Z,8.70
2024-03-09T09:30:59.747Z,8.57
2024-03-09T09:33:31.111Z,8.50
2024-03-09T09:36:02.854Z,8.42
2024-03-09T09:38:32.630Z,8.40
2024-03-09T09:41:01.241Z,8.63
2024-03-09T09:43:30.234Z,8.87
2024-03-09T09:46:03.530Z,9.19
2024-03-09T09:48:42.227Z,9.38
2024-03-09T09:51:12.630Z,9.82
2024-03-09T09:53:43.546Z,10.27
2024-03-09T09:56:12.029Z,10.64
2024-03-09T09:58:40.877Z,10.87
2024-03-09T10:01:09.600Z,10.97
2024-03-09T10:03:38.117Z,11.17
2024-03-09T10:06:19.817Z,11.37
2024-03-09T10:08:49.583Z,11.51
2024-03-09T10:11:19.268Z,11.73
2024-03-09T10:13:49.345Z,11.76
2024-03-09T10:16:18.669Z,11.50
2024-03-09T10:18:50.664Z,11.46
2024-03-09T10:21:28.113Z,11.22
2024-03-09T10:24:07.208Z,11.08
2024-03-09T10:26:37.392Z,11.22
2024-03-09T10:29:06.065Z,11.28
2024-03-09T10:31:37.253Z,11.43
2024-03-09T10:34:09.800Z,11.65
2024-03-09T10:36:39.189Z,11.83
2024-03-09T10:39:11.185Z,12.20
2024-03-09T10:41:41.929Z,12.51
2024-03-09T10:44:11.827Z,12.78
2024-03-09T10:46:44.856Z,12.92
2024-03-09T10:49:14.018Z,13.03
2024-03-09T10:51:55.803Z,13.19
2024-03-09T10:54:44.649Z,13.37
2024-03-09T10:57:23.051Z,13.58
2024-03-09T10:59:53.229Z,14.14
2024-03-09T11:02:21.996Z,14.53
2024-03-09T11:04:54.010Z,14.83
2024-03-09T11:07:23.923Z,15.14
2024-03-09T11:09:55.104Z,15.48
2024-03-09T11:12:23.932Z,15.46
2024-03-09T11:14:53.734Z,15.45
2024-03-09T11:17:23.453Z,14.99
2024-03-09T11:19:57.499Z,14.99
2024-03-09T11:22:42.840Z,15.10
2024-03-09T11:25:14.015Z,14.66
2024-03-09T11:27:47.167Z,14.40
2024-03-09T11:30:18.361Z,14.54
2024-03-09T11:32:48.027Z,15.20
2024-03-09T11:35:33.841Z,15.74
2024-03-09T11:38:13.407Z,16.26
2024-03-09T11:40:42.055Z,16.90
2024-03-09T11:43:15.980Z,17.05
2024-03-09T11:45:46.667Z,17.69
2024-03-09T11:48:15.062Z,17.68
2024-03-09T11:50:43.341Z,17.38
2024-03-09T11:53:11.599Z,16.88
2024-03-09T11:55:40.225Z,16.10
2024-03-09T11:58:08.903Z,15.53
2024-03-09T12:00:37.381Z,15.31
2024-03-09T12:03:16.436Z,15.10
2024-03-09T12:05:44.974Z,15.63
2024-03-09T12:08:14.097Z,16.17
2024-03-09T12:10:44.054Z,15.97
2024-03-09T12:13:13.360Z,15.51
2024-03-09T12:15:43.128Z,15.13
2024-03-09T12:18:13.295Z,14.56
2024-03-09T12:20:43.594Z,13.86
2024-03-09T12:23:13.365Z,13.41
2024-03-09T12:25:43.120Z,13.16
2024-03-09T12:28:11.647Z,12.96
2024-03-09T12:30:40.623Z,12.75
2024-03-09T12:33:11.863Z,12.48
2024-03-09T12:35:43.677Z,12.23
2024-03-09T12:38:16.294Z,12.01
2024-03-09T12:40:48.665Z,11.81
2024-03-09T12:43:17.295Z,11.62
2024-03-09T12:45:53.548Z,11.52
2024-03-09T12:48:25.181Z,11.37
2024-03-09T12:50:56.786Z,11.23
2024-03-09T12:53:25.708Z,11.14
2024-03-09T12:55:54.109Z,11.10
2024-03-09T12:58:22.895Z,11.11
2024-03-09T13:00:55.385Z,11.09
2024-03-09T13:03:25.429Z,11.10
2024-03-09T13:05:53.938Z,11.47
2024-03-09T13:08:27.663Z,12.87
2024-03-09T13:10:56.876Z,14.43
2024-03-09T13:13:25.097Z,15.64
2024-03-09T13:15:55.775Z,16.61
2024-03-09T13:18:25.336Z,16.65
2024-03-09T13:20:54.674Z,16.05
2024-03-09T13:23:23.302Z,15.37
2024-03-09T13:25:52.555Z,14.73
2024-03-09T13:28:20.905Z,14.15
2024-03-09T13:30:49.537Z,13.54
2024-03-09T13:33:18.200Z,13.17
2024-03-09T13:35:46.796Z,12.94
2024-03-09T13:38:15.172Z,12.66
2024-03-09T13:40:43.654Z,12.39
2024-03-09T13:43:13.625Z,12.26
2024-03-09T13:45:42.504Z,12.26
2024-03-09T13:48:12.720Z,12.24
2024-03-09T13:50:41.906Z,12.27
2024-03-09T13:53:10.339Z,12.45
2024-03-09T13:55:40.545Z,12.59
2024-03-09T13:58:09.091Z,13.09
2024-03-09T14:00:37.618Z,13.98
2024-03-09T14:03:08.552Z,15.35
2024-03-09T14:05:37.683Z,16.61
2024-03-09T14:08:09.622Z,17.08
2024-03-09T14:10:40.791Z,17.08
2024-03-09T14:13:10.126Z,17.12
2024-03-09T14:15:39.157Z,16.39
2024-03-09T14:18:15.685Z,15.50
2024-03-09T14:20:44.472Z,14.77
2024-03-09T14:23:18.091Z,14.22
2024-03-09T14:25:46.569Z,13.80
2024-03-09T14:28:15.463Z,13.30
2024-03-09T14:30:44.037Z,12.93
2024-03-09T14:33:16.733Z,12.54
2024-03-09T14:35:46.417Z,12.28
2024-03-09T14:38:15.803Z,12.06
2024-03-09T14:40:44.367Z,11.89
2024-03-09T14:43:14.246Z,11.69
2024-03-09T14:45:42.838Z,11.55
2024-03-09T14:48:16.616Z,11.39
2024-03-09T14:50:45.533Z,11.27
2024-03-09T14:53:17.180Z,11.25
2024-03-09T14:55:46.758Z,11.23
2024-03-09T14:58:17.626Z,11.15
2024-03-09T15:00:46.141Z,10.98
2024-03-09T15:03:30.239Z,10.88
2024-03-09T15:06:00.213Z,10.81
2024-03-09T15:08:29.635Z,10.74
2024-03-09T15:11:02.621Z,10.69
2024-03-09T15:13:42.086Z,10.64
2024-03-09T15:16:13.607Z,10.55
2024-03-09T15:18:42.202Z,10.43
2024-03-09T15:21:11.186Z,10.33
2024-03-09T15:23:41.005Z,10.25
2024-03-09T15:26:10.550Z,10.14
2024-03-09T15:28:42.572Z,10.06
2024-03-09T15:31:12.355Z,9.98
2024-03-09T15:33:42.345Z,9.86
2024-03-09T15:36:12.656Z,9.82
2024-03-09T15:38:43.620Z,9.73
2024-03-09T15:41:15.357Z,9.59
2024-03-09T15:43:45.113Z,9.50
2024-03-09T15:46:13.974Z,9.45
2024-03-09T15:48:42.825Z,9.38
2024-03-09T15:51:13.999Z,9.24
2024-03-09T15:53:43.120Z,9.00
2024-03-09T15:56:12.774Z,8.78
2024-03-09T15:58:42.375Z,8.67
2024-03-09T16:01:17.306Z,8.57
2024-03-09T16:03:46.284Z,8.54
2024-03-09T16:06:18.029Z,8.52
2024-03-09T16:08:46.925Z,8.47
2024-03-09T16:11:15.396Z,8.39
2024-03-09T16:13:44.292Z,8.27
2024-03-09T16:16:25.251Z,8.15
2024-03-09T16:18:53.794Z,8.01
2024-03-09T16:21:22.594Z,7.86
2024-03-09T16:23:55.240Z,7.70
2024-03-09T16:26:24.140Z,7.57
2024-03-09T16:28:52.572Z,7.44
2024-03-09T16:31:24.537Z,7.27
2024-03-09T16:33:55.509Z,7.14
2024-03-09T16:36:23.902Z,7.05
2024-03-09T16:38:52.499Z,6.95
2024-03-09T16:41:24.728Z,6.85
2024-03-09T16:43:57.189Z,6.76
2024-03-09T16:46:26.976Z,6.66
2024-03-09T16:49:13.214Z,6.51
2024-03-09T16:51:53.240Z,6.30
2024-03-09T16:54:22.023Z,6.11
2024-03-09T16:57:01.541Z,5.91
2024-03-09T16:59:52.654Z,5.69
2024-03-09T17:02:24.483Z,5.48
2024-03-09T17:05:15.668Z,5.36
2024-03-09T17:07:44.342Z,5.22
2024-03-09T17:10:17.187Z,5.12
2024-03-09T17:12:53.378Z,5.05
2024-03-09T17:15:24.184Z,4.95
2024-03-09T17:18:23.672Z,4.84
2024-03-09T17:21:07.363Z,4.67
2024-03-09T17:23:58.580Z,4.47
2024-03-09T17:26:33.646Z,4.29
2024-03-09T17:29:22.360Z,4.15
2024-03-09T17:31:55.365Z,3.98
2024-03-09T17:34:24.461Z,3.91
2024-03-09T17:36:56.392Z,3.88
2024-03-09T17:39:28.813Z,3.88
2024-03-09T17:41:59.152Z,3.79
2024-03-09T17:44:48.019Z,3.75
2024-03-09T17:47:39.861Z,3.72
2024-03-09T17:50:15.592Z,3.69
2024-03-09T17:53:06.684Z,3.67
2024-03-09T17:55:59.845Z,3.59
2024-03-09T17:58:29.811Z,3.50
2024-03-09T18:00:58.794Z,3.40
2024-03-09T18:03:30.660Z,3.37
2024-03-09T18:06:02.665Z,3.36
2024-03-09T18:08:33.502Z,3.38
2024-03-09T18:12:02.555Z,3.37
2024-03-09T18:14:34.721Z,3.28
2024-03-09T18:17:08.605Z,3.23
2024-03-09T18:19:46.149Z,3.19
2024-03-09T18:22:17.695Z,3.15
2024-03-09T18:24:53.644Z,3.12
2024-03-09T18:27:53.731Z,3.04
2024-03-09T18:30:33.119Z,2.99
2024-03-09T18:33:14.420Z,2.91
2024-03-09T18:36:33.914Z,2.81
2024-03-09T18:39:05.257Z,2.73
2024-03-09T18:41:53.915Z,2.64
2024-03-09T18:45:05.801Z,2.58
2024-03-09T18:47:38.145Z,2.53
2024-03-09T18:50:41.326Z,2.51
2024-03-09T18:53:19.355Z,2.44
2024-03-09T18:56:34.211Z,2.43
2024-03-09T18:59:45.595Z,2.40
2024-03-09T19:02:17.418Z,2.33
2024-03-09T19:05:06.806Z,2.28
2024-03-09T19:08:19.163Z,2.24
2024-03-09T19:10:47.921Z,2.11
2024-03-09T19:13:28.935Z,2.03
2024-03-09T19:16:48.876Z,1.99
2024-03-09T19:19:27.865Z,2.00
2024-03-09T19:22:47.051Z,1.99
2024-03-09T19:25:17.192Z,1.99
2024-03-09T19:28:09.418Z,1.96
2024-03-09T19:31:01.318Z,1.93
2024-03-09T19:33:53.724Z,1.89
2024-03-09T19:36:58.835Z,1.89
2024-03-09T19:39:50.835Z,1.79
2024-03-09T19:42:32.401Z,1.74
2024-03-09T19:45:06.864Z,1.72
2024-03-09T19:47:58.473Z,1.70
2024-03-09T19:50:37.728Z,1.69
2024-03-09T19:53:35.812Z,1.69
2024-03-09T19:56:25.266Z,1.65
2024-03-09T19:59:02.199Z,1.58
2024-03-09T20:01:38.372Z,1.52
2024-03-09T20:04:39.039Z,1.42
2024-03-09T20:07:37.593Z,1.37
2024-03-09T20:10:29.089Z,1.36
2024-03-09T20:13:23.637Z,1.30
2024-03-09T20:16:15.597Z,1.26
2024-03-09T20:18:46.822Z,1.19
2024-03-09T20:22:03.224Z,1.15
2024-03-09T20:25:11.320Z,1.14
2024-03-09T20:28:18.845Z,1.12
2024-03-09T20:31:33.209Z,1.10
2024-03-09T20:34:07.576Z,1.11
2024-03-09T20:37:18.964Z,1.11
2024-03-09T20:40:01.183Z,1.07
2024-03-09T20:43:13.654Z,1.05
2024-03-09T20:45:55.340Z,0.96
2024-03-09T20:48:51.616Z,0.87
2024-03-09T20:52:06.419Z,0.83
2024-03-09T20:55:30.254Z,0.84
2024-03-09T20:58:37.298Z,0.81
2024-03-09T21:01:51.676Z,0.75
2024-03-09T21:05:44.136Z,0.67
2024-03-09T21:08:33.153Z,0.68
2024-03-09T21:11:43.154Z,0.69
2024-03-09T21:14:15.180Z,0.67
2024-03-09T21:17:09.759Z,0.58
2024-03-09T21:19:45.962Z,0.44
2024-03-09T21:22:18.511Z,0.40
2024-03-09T21:24:51.691Z,0.38
2024-03-09T21:27:22.370Z,0.34
2024-03-09T21:30:16.220Z,0.30
2024-03-09T21:32:48.782Z,0.21
2024-03-09T21:35:43.414Z,0.22
2024-03-09T21:38:14.528Z,0.21
2024-03-09T21:41:17.034Z,0.24
2024-03-09T21:44:09.783Z,0.23
2024-03-09T21:46:41.933Z,0.22
2024-03-09T21:49:44.240Z,0.17
2024-03-09T21:52:35.418Z,0.12
2024-03-09T21:55:47.258Z,0.13
2024-03-09T21:58:38.882Z,0.12
2024-03-09T22:01:50.805Z,0.09
2024-03-09T22:04:22.323Z,0.06
2024-03-09T22:07:31.491Z,0.02
2024-03-09T22:10:22.991Z,-0.04
2024-03-09T22:13:15.163Z,-0.08
2024-03-09T22:16:23.520Z,-0.07
2024-03-09T22:19:18.769Z,-0.10
2024-03-09T22:22:13.764Z,-0.09
2024-03-09T22:25:26.871Z,-0.11
2024-03-09T22:28:56.744Z,-0.17
2024-03-09T22:31:31.470Z,-0.20
2024-03-09T22:34:09.653Z,-0.21
2024-03-09T22:37:14.694Z,-0.21
2024-03-09T22:40:26.945Z,-0.24
2024-03-09T22:43:04.655Z,-0.23
2024-03-09T22:45:57.086Z,-0.23
2024-03-09T22:48:59.897Z,-0.27
2024-03-09T22:51:42.862Z,-0.34
2024-03-09T22:54:41.574Z,-0.38
2024-03-09T22:57:43.308Z,-0.36
2024-03-09T23:00:20.322Z,-0.36
2024-03-09T23:03:50.409Z,-0.33
2024-03-09T23:07:08.286Z,-0.33
2024-03-09T23:10:05.178Z,-0.37
2024-03-09T23:12:54.283Z,-0.40
2024-03-09T23:15:44.077Z,-0.42
2024-03-09T23:18:52.272Z,-0.44
2024-03-09T23:21:27.035Z,-0.43
2024-03-09T23:24:09.009Z,-0.43
2024-03-09T23:26:58.535Z,-0.44
2024-03-09T23:30:10.613Z,-0.42
2024-03-09T23:33:08.215Z,-0.40
2024-03-09T23:35:45.916Z,-0.42
2024-03-09T23:38:42.872Z,-0.44
2024-03-09T23:41:34.956Z,-0.43
2024-03-09T23:44:23.168Z,-0.41
2024-03-09T23:47:17.373Z,-0.41
2024-03-09T23:50:14.406Z,-0.41
2024-03-09T23:53:17.099Z,-0.42
2024-03-09T23:56:12.120Z,-0.40
2024-03-09T23:59:11.119Z,-0.38
